createdAt,value
2023-06-17T00:00:11.052Z,16.87
2023-06-17T00:04:13.107Z,16.81
2023-06-17T00:08:15.183Z,16.43
2023-06-17T00:12:17.908Z,16.16
2023-06-17T00:16:22.183Z,16.41
2023-06-17T00:20:24.867Z,16.70
2023-06-17T00:24:27.311Z,16.84
2023-06-17T00:28:29.611Z,16.80
2023-06-17T00:32:32.071Z,16.98
2023-06-17T00:36:34.327Z,17.11
2023-06-17T00:40:36.585Z,17.14
2023-06-17T00:44:41.216Z,17.16
2023-06-17T00:48:43.642Z,17.28
2023-06-17T00:52:47.037Z,17.11
2023-06-17T00:56:49.459Z,17.20
2023-06-17T01:00:51.676Z,17.45
2023-06-17T01:04:59.193Z,17.63
2023-06-17T01:09:14.631Z,17.87
2023-06-17T01:13:19.545Z,18.04
2023-06-17T01:17:22.541Z,18.12
2023-06-17T01:21:29.778Z,18.18
2023-06-17T01:25:33.047Z,18.28
2023-06-17T01:29:39.351Z,18.37
2023-06-17T01:33:46.916Z,18.49
2023-06-17T01:37:55.643Z,18.65
2023-06-17T01:42:00.968Z,18.72
2023-06-17T01:46:05.752Z,18.87
2023-06-17T01:50:08.842Z,18.80
2023-06-17T01:54:11.803Z,18.74
2023-06-17T01:58:13.934Z,18.75
2023-06-17T02:02:16.383Z,18.72
2023-06-17T02:06:18.755Z,18.68
2023-06-17T02:10:23.833Z,18.62
2023-06-17T02:14:27.410Z,18.43
2023-06-17T02:18:29.593Z,18.42
2023-06-17T02:22:31.799Z,18.35
2023-06-17T02:26:33.989Z,18.29
2023-06-17T02:30:38.630Z,18.25
2023-06-17T02:34:43.800Z,18.32
2023-06-17T02:38:46.403Z,18.25
2023-06-17T02:42:48.581Z,18.27
2023-06-17T02:46:51.720Z,18.25
2023-06-17T02:50:56.067Z,17.90
2023-06-17T02:54:58.447Z,17.60
2023-06-17T02:59:01.806Z,17.55
2023-06-17T03:03:04.498Z,17.44
2023-06-17T03:07:07.642Z,17.36
2023-06-17T03:11:10.407Z,17.24
2023-06-17T03:15:18.817Z,17.11
2023-06-17T03:19:21.658Z,16.84
2023-06-17T03:23:24.720Z,16.98
2023-06-17T03:27:28.639Z,16.95
2023-06-17T03:31:31.614Z,16.82
2023-06-17T03:35:34.885Z,16.77
2023-06-17T03:39:38.270Z,16.83
2023-06-17T03:43:41.324Z,16.93
2023-06-17T03:47:43.687Z,16.95
2023-06-17T03:51:46.151Z,16.96
2023-06-17T03:55:49.379Z,16.96
2023-06-17T03:59:52.092Z,16.96
2023-06-17T04:03:54.596Z,16.99
2023-06-17T04:08:00.730Z,16.81
2023-06-17T04:12:03.939Z,16.76
2023-06-17T04:16:06.259Z,16.80
2023-06-17T04:20:13.511Z,16.95
2023-06-17T04:24:15.945Z,16.47
2023-06-17T04:28:19.129Z,16.75
2023-06-17T04:32:22.753Z,17.07
2023-06-17T04:36:24.901Z,17.22
2023-06-17T04:40:29.148Z,17.41
2023-06-17T04:44:32.703Z,17.45
2023-06-17T04:48:38.388Z,17.55
2023-06-17T04:52:45.296Z,17.61
2023-06-17T04:56:49.745Z,17.47
2023-06-17T05:00:55.295Z,17.75
2023-06-17T05:05:01.331Z,17.49
2023-06-17T05:09:03.779Z,17.59
2023-06-17T05:13:06.952Z,17.88
2023-06-17T05:17:10.226Z,18.08
2023-06-17T05:21:12.927Z,18.17
2023-06-17T05:25:15.406Z,18.41
2023-06-17T05:29:17.652Z,18.52
2023-06-17T05:33:21.095Z,18.71
2023-06-17T05:37:23.899Z,18.76
2023-06-17T05:41:26.749Z,18.82
2023-06-17T05:45:29.630Z,19.00
2023-06-17T05:49:32.450Z,19.19
2023-06-17T05:53:34.730Z,19.33
2023-06-17T05:57:38.217Z,19.44
2023-06-17T06:01:40.880Z,19.52
2023-06-17T06:05:43.175Z,19.66
2023-06-17T06:09:45.388Z,19.81
2023-06-17T06:13:48.252Z,19.94
2023-06-17T06:17:50.754Z,20.14
2023-06-17T06:21:52.850Z,20.24
2023-06-17T06:25:55.132Z,20.42
2023-06-17T06:29:57.847Z,20.55
2023-06-17T06:34:00.809Z,20.67
2023-06-17T06:38:03.215Z,20.77
2023-06-17T06:42:05.834Z,21.00
2023-06-17T06:46:28.939Z,21.08
2023-06-17T06:50:31.819Z,21.19
2023-06-17T06:54:34.366Z,21.37
2023-06-17T06:58:37.251Z,21.44
2023-06-17T07:02:39.522Z,21.52
2023-06-17T07:06:41.931Z,21.52
2023-06-17T07:10:49.778Z,21.61
2023-06-17T07:14:52.162Z,21.75
2023-06-17T07:18:54.361Z,21.97
2023-06-17T07:22:58.642Z,22.14
2023-06-17T07:27:01.828Z,22.17
2023-06-17T07:31:05.648Z,22.17
2023-06-17T07:35:08.380Z,22.35
2023-06-17T07:39:11.774Z,22.60
2023-06-17T07:43:14.187Z,22.72
2023-06-17T07:47:16.724Z,22.92
2023-06-17T07:51:18.861Z,23.12
2023-06-17T07:55:21.975Z,23.07
2023-06-17T07:59:24.084Z,23.09
2023-06-17T08:03:26.552Z,23.19
2023-06-17T08:07:28.829Z,23.45
2023-06-17T08:11:31.074Z,23.55
2023-06-17T08:15:33.598Z,23.67
2023-06-17T08:19:36.700Z,23.86
2023-06-17T08:23:40.078Z,24.09
2023-06-17T08:27:48.693Z,24.26
2023-06-17T08:31:52.757Z,24.32
2023-06-17T08:35:55.160Z,24.30
2023-06-17T08:39:58.030Z,24.20
2023-06-17T08:44:02.952Z,24.13
2023-06-17T08:48:06.959Z,24.24
2023-06-17T08:52:09.731Z,24.29
2023-06-17T08:56:13.685Z,24.47
2023-06-17T09:00:16.324Z,24.53
2023-06-17T09:04:21.398Z,24.67
2023-06-17T09:08:25.819Z,25.03
2023-06-17T09:12:37.008Z,24.96
2023-06-17T09:16:40.116Z,25.15
2023-06-17T09:20:42.597Z,25.42
2023-06-17T09:24:44.728Z,25.40
2023-06-17T09:28:47.008Z,25.41
2023-06-17T09:32:53.333Z,25.58
2023-06-17T09:37:02.330Z,25.74
2023-06-17T09:41:05.556Z,25.85
2023-06-17T09:45:12.970Z,25.99
2023-06-17T09:49:23.230Z,26.06
2023-06-17T09:53:30.986Z,26.40
2023-06-17T09:57:34.154Z,26.52
2023-06-17T10:01:40.847Z,26.50
2023-06-17T10:05:43.210Z,26.62
2023-06-17T10:09:45.712Z,26.44
2023-06-17T10:13:56.086Z,26.30
2023-06-17T10:17:59.029Z,26.62
2023-06-17T10:22:04.127Z,26.63
2023-06-17T10:26:12.243Z,26.77
2023-06-17T10:30:26.870Z,26.86
2023-06-17T10:34:29.043Z,27.12
2023-06-17T10:38:31.917Z,27.29
2023-06-17T10:42:34.250Z,27.18
2023-06-17T10:46:36.343Z,27.10
2023-06-17T10:50:38.700Z,27.14
2023-06-17T10:54:54.650Z,27.00
2023-06-17T10:58:57.224Z,26.84
2023-06-17T11:03:00.289Z,26.98
2023-06-17T11:07:06.123Z,27.00
2023-06-17T11:11:12.880Z,27.44
2023-06-17T11:15:15.565Z,27.71
2023-06-17T11:19:17.697Z,27.75
2023-06-17T11:23:20.294Z,27.93
2023-06-17T11:27:22.786Z,27.90
2023-06-17T11:31:27.348Z,27.57
2023-06-17T11:35:29.973Z,28.00
2023-06-17T11:39:32.389Z,28.01
2023-06-17T11:43:34.772Z,27.65
2023-06-17T11:47:37.845Z,27.75
2023-06-17T11:51:48.917Z,27.63
2023-06-17T11:55:51.062Z,27.95
2023-06-17T11:59:59.605Z,28.11
2023-06-17T12:04:02.354Z,28.40
2023-06-17T12:08:04.902Z,28.57
2023-06-17T12:12:11.827Z,28.58
2023-06-17T12:16:25.043Z,28.46
2023-06-17T12:20:27.888Z,28.77
2023-06-17T12:24:30.539Z,28.93
2023-06-17T12:28:33.862Z,29.01
2023-06-17T12:32:37.315Z,29.25
2023-06-17T12:36:39.820Z,29.45
2023-06-17T12:40:42.145Z,29.57
2023-06-17T12:44:45.862Z,29.79
2023-06-17T12:48:49.217Z,29.98
2023-06-17T12:52:52.914Z,29.16
2023-06-17T12:56:55.025Z,29.38
2023-06-17T13:00:57.577Z,29.34
2023-06-17T13:04:59.992Z,29.45
2023-06-17T13:09:02.305Z,29.36
2023-06-17T13:13:04.551Z,29.49
2023-06-17T13:17:07.737Z,29.35
2023-06-17T13:21:10.410Z,29.80
2023-06-17T13:25:12.550Z,29.89
2023-06-17T13:29:15.612Z,29.93
2023-06-17T13:33:18.263Z,29.84
2023-06-17T13:37:20.755Z,30.11
2023-06-17T13:41:23.584Z,29.68
2023-06-17T13:45:26.033Z,29.16
2023-06-17T13:49:28.394Z,29.10
2023-06-17T13:53:32.545Z,28.94
2023-06-17T13:57:34.723Z,29.25
2023-06-17T14:01:36.892Z,29.18
2023-06-17T14:05:39.104Z,29.28
2023-06-17T14:09:41.363Z,29.23
2023-06-17T14:13:44.474Z,29.49
2023-06-17T14:17:47.106Z,29.84
2023-06-17T14:21:58.150Z,30.31
2023-06-17T14:26:00.685Z,30.81
2023-06-17T14:30:04.806Z,30.81
2023-06-17T14:34:08.039Z,30.28
2023-06-17T14:38:10.193Z,30.17
2023-06-17T14:42:13.100Z,29.89
2023-06-17T14:46:16.067Z,30.28
2023-06-17T14:50:18.355Z,30.64
2023-06-17T14:54:20.610Z,30.37
2023-06-17T14:58:22.793Z,31.01
2023-06-17T15:02:37.736Z,31.76
2023-06-17T15:06:40.936Z,31.26
2023-06-17T15:10:43.090Z,31.63
2023-06-17T15:14:45.271Z,32.44
2023-06-17T15:18:47.389Z,32.33
2023-06-17T15:22:49.694Z,32.09
2023-06-17T15:26:52.048Z,31.38
2023-06-17T15:30:54.273Z,31.48
2023-06-17T15:34:57.056Z,31.45
2023-06-17T15:39:02.808Z,32.17
2023-06-17T15:43:05.117Z,33.64
2023-06-17T15:47:07.415Z,35.01
2023-06-17T15:51:09.709Z,34.31
2023-06-17T15:55:11.900Z,35.77
2023-06-17T15:59:14.171Z,35.26
2023-06-17T16:03:37.040Z,35.99
2023-06-17T16:07:39.928Z,36.72
2023-06-17T16:11:42.081Z,37.15
2023-06-17T16:15:44.408Z,36.04
2023-06-17T16:19:46.542Z,35.77
2023-06-17T16:23:48.920Z,38.02
2023-06-17T16:27:51.325Z,39.00
2023-06-17T16:31:53.461Z,37.07
2023-06-17T16:35:57.168Z,36.81
2023-06-17T16:39:59.308Z,36.24
2023-06-17T16:44:02.591Z,35.86
2023-06-17T16:48:06.218Z,33.67
2023-06-17T16:52:09.829Z,34.49
2023-06-17T16:56:12.173Z,34.36
2023-06-17T17:00:14.780Z,34.18
2023-06-17T17:04:17.070Z,32.72
2023-06-17T17:08:19.898Z,31.71
2023-06-17T17:12:22.466Z,32.99
2023-06-17T17:16:24.657Z,33.27
2023-06-17T17:20:27.335Z,33.40
2023-06-17T17:24:29.504Z,33.35
2023-06-17T17:28:32.212Z,33.03
2023-06-17T17:32:34.849Z,31.72
2023-06-17T17:36:37.443Z,30.92
2023-06-17T17:40:39.581Z,31.69
2023-06-17T17:44:41.901Z,31.70
2023-06-17T17:48:44.040Z,31.96
2023-06-17T17:52:46.503Z,31.41
2023-06-17T17:56:48.663Z,32.09
2023-06-17T18:00:50.936Z,32.17
2023-06-17T18:04:53.186Z,31.95
2023-06-17T18:08:55.879Z,32.13
2023-06-17T18:12:58.066Z,31.88
2023-06-17T18:17:00.178Z,31.53
2023-06-17T18:21:02.268Z,30.87
2023-06-17T18:25:08.481Z,30.40
2023-06-17T18:29:10.784Z,29.68
2023-06-17T18:33:13.387Z,28.98
2023-06-17T18:37:15.757Z,28.28
2023-06-17T18:41:17.976Z,27.86
2023-06-17T18:45:20.414Z,27.13
2023-06-17T18:49:25.091Z,26.73
2023-06-17T18:53:27.426Z,26.46
2023-06-17T18:57:30.746Z,26.08
2023-06-17T19:01:33.608Z,25.76
2023-06-17T19:05:39.612Z,25.51
2023-06-17T19:09:41.868Z,25.18
2023-06-17T19:13:44.300Z,24.88
2023-06-17T19:17:46.497Z,24.52
2023-06-17T19:21:48.999Z,24.31
2023-06-17T19:25:51.367Z,24.05
2023-06-17T19:30:01.642Z,23.76
2023-06-17T19:34:04.216Z,23.70
2023-06-17T19:38:07.574Z,23.57
2023-06-17T19:42:09.789Z,23.41
2023-06-17T19:46:12.109Z,23.13
2023-06-17T19:50:16.367Z,22.96
2023-06-17T19:54:20.157Z,22.87
2023-06-17T19:58:23.076Z,22.05
2023-06-17T20:02:25.368Z,22.02
2023-06-17T20:06:27.504Z,22.04
2023-06-17T20:10:30.101Z,21.84
2023-06-17T20:14:32.488Z,20.63
2023-06-17T20:18:34.662Z,20.74
2023-06-17T20:22:36.803Z,20.94
2023-06-17T20:26:39.877Z,20.93
2023-06-17T20:30:42.181Z,20.69
2023-06-17T20:34:44.463Z,20.57
2023-06-17T20:38:47.311Z,20.59
2023-06-17T20:42:49.521Z,20.65
2023-06-17T20:46:53.797Z,20.41
2023-06-17T20:50:56.267Z,20.37
2023-06-17T20:54:58.481Z,20.16
2023-06-17T20:59:00.637Z,20.20
2023-06-17T21:03:03.570Z,20.14
2023-06-17T21:07:05.877Z,20.05
2023-06-17T21:11:08.676Z,20.01
2023-06-17T21:15:11.182Z,20.04
2023-06-17T21:19:13.358Z,20.02
2023-06-17T21:23:15.837Z,19.99
2023-06-17T21:27:18.070Z,19.94
2023-06-17T21:31:20.343Z,19.93
2023-06-17T21:35:22.666Z,19.86
2023-06-17T21:39:24.804Z,19.77
2023-06-17T21:43:28.010Z,19.37
2023-06-17T21:47:30.372Z,18.89
2023-06-17T21:51:32.790Z,18.81
2023-06-17T21:55:35.470Z,18.96
2023-06-17T21:59:37.647Z,18.99
2023-06-17T22:03:41.549Z,18.74
2023-06-17T22:07:43.851Z,18.78
2023-06-17T22:11:46.283Z,18.69
2023-06-17T22:15:48.405Z,18.47
2023-06-17T22:19:51.118Z,18.34
2023-06-17T22:23:53.281Z,18.30
2023-06-17T22:27:57.060Z,18.17
2023-06-17T22:31:59.144Z,18.25
2023-06-17T22:36:01.471Z,18.28
2023-06-17T22:40:06.700Z,18.23
2023-06-17T22:44:09.046Z,17.83
2023-06-17T22:48:11.642Z,17.68
2023-06-17T22:52:13.827Z,17.75
2023-06-17T22:56:17.134Z,17.51
2023-06-17T23:00:19.742Z,17.53
2023-06-17T23:04:22.216Z,17.54
2023-06-17T23:08:24.521Z,17.57
2023-06-17T23:12:26.682Z,17.39
2023-06-17T23:16:28.853Z,17.50
2023-06-17T23:20:31.001Z,17.41
2023-06-17T23:24:33.854Z,17.30
2023-06-17T23:28:36.035Z,17.33
2023-06-17T23:32:38.777Z,17.32
2023-06-17T23:36:41.719Z,17.31
2023-06-17T23:40:44.475Z,17.29
2023-06-17T23:44:49.012Z,17.26
2023-06-17T23:48:51.940Z,17.22
2023-06-17T23:52:54.733Z,17.15
2023-06-17T23:56:56.860Z,17.06
